Time;durP1;ratioP1;P1;durP2;ratioP2;P2;SDS_P1;SDS_P2;PMS_P1;PMS_P2;Temp;Humidity;BMP_temperature;BMP_pressure;BME280_temperature;BME280_humidity;BME280_pressure;Samples;Min_cycle;Max_cycle;Signal;HPM_P1;HPM_P2
2022/04/07 00:01:37;;;;;;;1.73;1.63;;;;;;;;;;5080997;28;20233;-74
2022/04/07 00:04:02;;;;;;;1.93;1.67;;;;;;;;;;5087081;28;20205;-74
2022/04/07 00:06:27;;;;;;;1.70;1.60;;;;;;;;;;5083084;28;20182;-74
2022/04/07 00:08:52;;;;;;;2.10;1.90;;;;;;;;;;5090266;28;20187;-74
2022/04/07 00:11:17;;;;;;;3.08;1.88;;;;;;;;;;5087848;28;20173;-74
2022/04/07 00:13:43;;;;;;;1.80;1.67;;;;;;;;;;5082174;28;20187;-73
2022/04/07 00:16:08;;;;;;;2.07;1.90;;;;;;;;;;5088935;28;20311;-74
2022/04/07 00:18:33;;;;;;;2.67;1.70;;;;;;;;;;5084963;28;20271;-74
2022/04/07 00:20:59;;;;;;;2.47;1.47;;;;;;;;;;5084792;28;20176;-74
2022/04/07 00:23:25;;;;;;;1.70;1.60;;;;;;;;;;5084316;28;20208;-74
2022/04/07 00:25:50;;;;;;;2.50;1.40;;;;;;;;;;5086365;28;20214;-74
2022/04/07 00:28:15;;;;;;;1.30;1.20;;;;;;;;;;5086634;28;20206;-74
2022/04/07 00:30:41;;;;;;;1.40;1.30;;;;;;;;;;5086278;28;20189;-74
2022/04/07 00:33:07;;;;;;;2.07;1.30;;;;;;;;;;5089126;28;20209;-74
2022/04/07 00:35:32;;;;;;;1.33;1.23;;;;;;;;;;5083456;28;20277;-74
2022/04/07 00:37:57;;;;;;;1.90;1.30;;;;;;;;;;5082776;28;20262;-74
2022/04/07 00:40:23;;;;;;;1.47;1.37;;;;;;;;;;5083159;28;20217;-74
2022/04/07 00:42:49;;;;;;;1.50;1.40;;;;;;;;;;5088955;28;20171;-74
2022/04/07 00:45:15;;;;;;;1.20;1.10;;;;;;;;;;5086089;28;20204;-74
2022/04/07 00:47:41;;;;;;;1.30;1.20;;;;;;;;;;5089545;28;20181;-74
2022/04/07 00:50:06;;;;;;;1.20;1.10;;;;;;;;;;5079472;28;20180;-74
2022/04/07 00:52:32;;;;;;;1.33;1.03;;;;;;;;;;5086707;28;20181;-74
2022/04/07 00:54:57;;;;;;;1.63;1.53;;;;;;;;;;5084929;28;20288;-74
2022/04/07 00:57:23;;;;;;;1.53;1.43;;;;;;;;;;5088458;28;20222;-74
2022/04/07 00:59:48;;;;;;;1.50;1.40;;;;;;;;;;5084433;28;20179;-74
2022/04/07 01:02:14;;;;;;;1.53;1.43;;;;;;;;;;5083307;28;20175;-74
2022/04/07 01:04:39;;;;;;;1.40;1.30;;;;;;;;;;5084061;28;20205;-74
2022/04/07 01:07:06;;;;;;;1.27;1.17;;;;;;;;;;5089448;28;20176;-74
2022/04/07 01:09:31;;;;;;;1.00;1.00;;;;;;;;;;5087733;28;20179;-74
2022/04/07 01:11:56;;;;;;;1.17;1.07;;;;;;;;;;5086860;28;20174;-74
2022/04/07 01:14:22;;;;;;;1.60;1.10;;;;;;;;;;5080533;28;20282;-74
2022/04/07 01:16:47;;;;;;;1.70;1.20;;;;;;;;;;5085387;28;20229;-74
2022/04/07 01:19:12;;;;;;;1.77;1.33;;;;;;;;;;5085582;28;20313;-74
2022/04/07 01:21:41;;;;;;;1.30;1.20;;;;;;;;;;5083850;28;20196;-74
2022/04/07 01:24:10;;;;;;;1.30;1.20;;;;;;;;;;5088403;28;20174;-74
2022/04/07 01:26:39;;;;;;;1.37;1.27;;;;;;;;;;5083938;28;20180;-74
2022/04/07 01:29:06;;;;;;;1.77;1.60;;;;;;;;;;5101067;28;20553;-74
2022/04/07 01:31:32;;;;;;;1.20;1.10;;;;;;;;;;5081630;28;20179;-74
2022/04/07 01:33:57;;;;;;;1.07;1.00;;;;;;;;;;5081118;28;20278;-74
2022/04/07 01:36:23;;;;;;;1.20;1.10;;;;;;;;;;5083319;28;20207;-73
2022/04/07 01:38:49;;;;;;;1.20;1.20;;;;;;;;;;5083126;28;20175;-74
2022/04/07 01:41:15;;;;;;;1.63;1.20;;;;;;;;;;5084018;28;20226;-73
2022/04/07 01:43:40;;;;;;;1.10;1.00;;;;;;;;;;5085979;28;20205;-74
2022/04/07 01:46:06;;;;;;;1.30;1.20;;;;;;;;;;5081609;28;20183;-74
2022/04/07 01:48:31;;;;;;;1.40;1.30;;;;;;;;;;5083078;28;20179;-74
2022/04/07 01:50:57;;;;;;;1.50;1.40;;;;;;;;;;5086003;28;20227;-74
2022/04/07 01:53:23;;;;;;;1.60;1.50;;;;;;;;;;5085183;28;20209;-74
2022/04/07 01:55:49;;;;;;;1.93;1.43;;;;;;;;;;5083399;28;20192;-74
2022/04/07 01:58:16;;;;;;;1.50;1.30;;;;;;;;;;5086074;28;20183;-74
2022/04/07 02:00:41;;;;;;;1.60;1.50;;;;;;;;;;5080650;28;20209;-74
2022/04/07 02:03:08;;;;;;;1.90;1.57;;;;;;;;;;5089887;28;20175;-74
2022/04/07 02:05:35;;;;;;;1.53;1.43;;;;;;;;;;5083754;28;20202;-74
2022/04/07 02:08:00;;;;;;;1.70;1.60;;;;;;;;;;5085532;28;20183;-74
2022/04/07 02:10:27;;;;;;;1.40;1.30;;;;;;;;;;5083800;28;20210;-74
2022/04/07 02:12:53;;;;;;;1.50;1.40;;;;;;;;;;5082078;28;20190;-74
2022/04/07 02:15:18;;;;;;;1.40;1.30;;;;;;;;;;5088352;28;20192;-74
2022/04/07 02:17:43;;;;;;;1.50;1.40;;;;;;;;;;5084792;28;20234;-74
2022/04/07 02:20:09;;;;;;;1.60;1.40;;;;;;;;;;5085047;28;20183;-74
2022/04/07 02:22:34;;;;;;;1.30;1.20;;;;;;;;;;5087671;28;20214;-74
2022/04/07 02:25:00;;;;;;;1.53;1.30;;;;;;;;;;5085628;28;20186;-74
2022/04/07 02:27:25;;;;;;;1.40;1.30;;;;;;;;;;5080938;28;20257;-74
2022/04/07 02:29:50;;;;;;;1.40;1.30;;;;;;;;;;5083385;28;20189;-74
2022/04/07 02:32:16;;;;;;;2.30;1.30;;;;;;;;;;5085030;28;20185;-74
2022/04/07 02:34:41;;;;;;;1.50;1.40;;;;;;;;;;5087347;28;20193;-74
2022/04/07 02:37:07;;;;;;;1.10;1.10;;;;;;;;;;5089671;28;20190;-74
2022/04/07 02:39:32;;;;;;;1.37;1.27;;;;;;;;;;5083476;28;20182;-74
2022/04/07 02:41:58;;;;;;;1.57;1.40;;;;;;;;;;5088219;28;20184;-74
2022/04/07 02:44:23;;;;;;;1.43;1.33;;;;;;;;;;5087486;28;20190;-74
2022/04/07 02:46:49;;;;;;;1.03;1.03;;;;;;;;;;5087650;28;20182;-74
2022/04/07 02:49:14;;;;;;;1.33;1.23;;;;;;;;;;5094421;28;20209;-74
2022/04/07 02:51:39;;;;;;;1.43;1.33;;;;;;;;;;5087973;28;20268;-74
2022/04/07 02:54:04;;;;;;;1.63;1.50;;;;;;;;;;5093364;28;20186;-74
2022/04/07 02:56:30;;;;;;;2.00;1.50;;;;;;;;;;5086263;28;20291;-74
2022/04/07 02:58:55;;;;;;;1.80;1.70;;;;;;;;;;5085117;28;20205;-74
2022/04/07 03:01:21;;;;;;;1.30;1.20;;;;;;;;;;5087613;28;20174;-74
2022/04/07 03:03:48;;;;;;;1.93;1.40;;;;;;;;;;5089071;28;20198;-74
2022/04/07 03:06:13;;;;;;;1.40;1.30;;;;;;;;;;5086830;28;20275;-74
2022/04/07 03:08:39;;;;;;;1.20;1.10;;;;;;;;;;5089899;28;20280;-74
2022/04/07 03:11:07;;;;;;;1.60;1.30;;;;;;;;;;5088500;28;20284;-74
2022/04/07 03:13:33;;;;;;;1.37;1.10;;;;;;;;;;5088068;28;20189;-74
2022/04/07 03:15:58;;;;;;;1.87;1.33;;;;;;;;;;5083342;28;20234;-74
2022/04/07 03:18:24;;;;;;;1.60;1.50;;;;;;;;;;5087885;28;20181;-74
2022/04/07 03:20:49;;;;;;;1.43;1.33;;;;;;;;;;5091767;28;20183;-74
2022/04/07 03:23:15;;;;;;;1.30;1.20;;;;;;;;;;5089849;28;20179;-74
2022/04/07 03:25:40;;;;;;;1.03;1.03;;;;;;;;;;5089076;28;20194;-74
2022/04/07 03:28:06;;;;;;;1.60;1.50;;;;;;;;;;5090448;28;20176;-74
2022/04/07 03:30:31;;;;;;;1.40;1.30;;;;;;;;;;5085366;28;20188;-74
2022/04/07 03:32:56;;;;;;;1.70;1.07;;;;;;;;;;5086689;28;20189;-74
2022/04/07 03:35:21;;;;;;;1.20;1.10;;;;;;;;;;5085519;28;20196;-74
2022/04/07 03:37:47;;;;;;;1.13;1.13;;;;;;;;;;5090565;28;20236;-74
2022/04/07 03:40:12;;;;;;;2.10;1.30;;;;;;;;;;5088872;28;20182;-74
2022/04/07 03:42:37;;;;;;;1.20;1.10;;;;;;;;;;5090391;28;20329;-74
2022/04/07 03:45:03;;;;;;;1.23;1.13;;;;;;;;;;5087651;28;20200;-74
2022/04/07 03:47:29;;;;;;;2.17;1.20;;;;;;;;;;5088144;28;20183;-73
2022/04/07 03:49:54;;;;;;;1.00;1.00;;;;;;;;;;5086757;28;20186;-74
2022/04/07 03:52:19;;;;;;;1.17;1.17;;;;;;;;;;5082464;28;20664;-74
2022/04/07 03:54:45;;;;;;;1.23;1.10;;;;;;;;;;5081035;28;20187;-74
2022/04/07 03:57:10;;;;;;;1.23;0.93;;;;;;;;;;5087872;28;20227;-74
2022/04/07 03:59:38;;;;;;;1.30;1.20;;;;;;;;;;5083277;28;20276;-74
2022/04/07 04:02:06;;;;;;;1.20;1.10;;;;;;;;;;5086735;28;20199;-74
2022/04/07 04:04:32;;;;;;;1.10;1.10;;;;;;;;;;5080379;28;20208;-74
2022/04/07 04:06:57;;;;;;;0.90;0.90;;;;;;;;;;5085989;28;20246;-74
2022/04/07 04:09:22;;;;;;;1.05;0.90;;;;;;;;;;5084773;28;20202;-74
2022/04/07 04:11:47;;;;;;;1.57;1.20;;;;;;;;;;5085383;28;20194;-74
2022/04/07 04:14:12;;;;;;;1.17;1.07;;;;;;;;;;5085752;28;20177;-74
2022/04/07 04:16:38;;;;;;;2.70;1.40;;;;;;;;;;5087248;28;20225;-74
2022/04/07 04:19:03;;;;;;;1.37;1.03;;;;;;;;;;5087809;28;20223;-74
2022/04/07 04:21:28;;;;;;;1.23;1.13;;;;;;;;;;5082145;28;20201;-74
2022/04/07 04:23:53;;;;;;;1.40;1.30;;;;;;;;;;5087901;28;20186;-74
2022/04/07 04:26:18;;;;;;;1.30;1.20;;;;;;;;;;5084884;28;20220;-74
2022/04/07 04:28:44;;;;;;;2.10;1.83;;;;;;;;;;5087329;28;20215;-74
2022/04/07 04:31:09;;;;;;;1.03;1.03;;;;;;;;;;5079547;28;20179;-74
2022/04/07 04:33:34;;;;;;;2.40;1.40;;;;;;;;;;5084235;28;20224;-74
2022/04/07 04:35:59;;;;;;;1.30;1.20;;;;;;;;;;5077887;28;20309;-74
2022/04/07 04:38:25;;;;;;;1.30;1.20;;;;;;;;;;5083734;28;20233;-74
2022/04/07 04:40:50;;;;;;;2.23;1.33;;;;;;;;;;5087665;28;20179;-74
2022/04/07 04:43:15;;;;;;;1.58;1.48;;;;;;;;;;5088013;28;20233;-74
2022/04/07 04:45:40;;;;;;;1.20;1.10;;;;;;;;;;5086282;28;20254;-74
2022/04/07 04:48:05;;;;;;;1.57;1.13;;;;;;;;;;5083132;28;20206;-74
2022/04/07 04:50:30;;;;;;;2.40;2.17;;;;;;;;;;5080758;28;20185;-74
2022/04/07 04:52:56;;;;;;;7.20;5.40;;;;;;;;;;5084685;28;20185;-74
2022/04/07 04:55:21;;;;;;;1.47;1.03;;;;;;;;;;5085459;28;20209;-74
2022/04/07 04:57:46;;;;;;;0.73;0.73;;;;;;;;;;5084684;28;20184;-74
2022/04/07 05:00:11;;;;;;;1.70;1.30;;;;;;;;;;5083885;28;20239;-79
2022/04/07 05:02:39;;;;;;;1.17;1.00;;;;;;;;;;5077744;28;20171;-77
2022/04/07 05:05:06;;;;;;;0.80;0.80;;;;;;;;;;5081468;28;20220;-77
2022/04/07 05:07:31;;;;;;;0.67;0.67;;;;;;;;;;5085295;28;20179;-77
2022/04/07 05:09:56;;;;;;;0.80;0.80;;;;;;;;;;5079371;28;20218;-75
2022/04/07 05:12:21;;;;;;;0.77;0.77;;;;;;;;;;5082400;28;20186;-77
2022/04/07 05:14:46;;;;;;;0.90;0.80;;;;;;;;;;5079835;28;20270;-77
2022/04/07 05:17:12;;;;;;;1.17;1.17;;;;;;;;;;5078499;28;20257;-77
2022/04/07 05:19:38;;;;;;;0.90;0.90;;;;;;;;;;5080715;28;20176;-77
2022/04/07 05:22:03;;;;;;;0.80;0.80;;;;;;;;;;5083238;28;20187;-77
2022/04/07 05:24:29;;;;;;;1.00;0.97;;;;;;;;;;5081448;28;20183;-77
2022/04/07 05:26:54;;;;;;;1.30;0.97;;;;;;;;;;5084709;28;20248;-77
2022/04/07 05:29:19;;;;;;;1.93;0.90;;;;;;;;;;5078269;28;20181;-77
2022/04/07 05:31:44;;;;;;;1.40;1.30;;;;;;;;;;5079773;28;20193;-77
2022/04/07 05:34:09;;;;;;;0.73;0.73;;;;;;;;;;5086202;28;20187;-76
2022/04/07 05:36:35;;;;;;;0.90;0.90;;;;;;;;;;5093225;28;20230;-77
2022/04/07 05:39:00;;;;;;;0.80;0.80;;;;;;;;;;5088201;28;20186;-77
2022/04/07 05:41:25;;;;;;;9.43;6.20;;;;;;;;;;5079779;28;20176;-76
2022/04/07 05:43:50;;;;;;;0.57;0.57;;;;;;;;;;5096010;28;20190;-77
2022/04/07 05:46:15;;;;;;;2.90;2.13;;;;;;;;;;5083939;28;20265;-77
2022/04/07 05:48:40;;;;;;;0.40;0.40;;;;;;;;;;5087184;28;20252;-77
2022/04/07 05:51:06;;;;;;;0.83;0.80;;;;;;;;;;5085800;28;20191;-76
2022/04/07 05:53:31;;;;;;;1.13;1.10;;;;;;;;;;5094393;28;20182;-77
2022/04/07 05:55:57;;;;;;;0.70;0.70;;;;;;;;;;5100386;28;20211;-77
2022/04/07 05:58:22;;;;;;;0.90;0.90;;;;;;;;;;5095002;28;20177;-77
2022/04/07 06:00:48;;;;;;;0.90;0.90;;;;;;;;;;5081589;28;20196;-77
2022/04/07 06:03:13;;;;;;;3.17;2.97;;;;;;;;;;5083063;28;20182;-77
2022/04/07 06:05:38;;;;;;;2.20;1.00;;;;;;;;;;5089119;28;20291;-77
2022/04/07 06:08:04;;;;;;;1.30;0.90;;;;;;;;;;5086600;28;20182;-77
2022/04/07 06:10:29;;;;;;;1.07;1.07;;;;;;;;;;5087140;28;20273;-77
2022/04/07 06:12:54;;;;;;;0.77;0.77;;;;;;;;;;5085803;28;20184;-77
2022/04/07 06:15:20;;;;;;;0.83;0.83;;;;;;;;;;5090204;28;20211;-77
2022/04/07 06:17:45;;;;;;;0.80;0.80;;;;;;;;;;5092086;28;20231;-77
2022/04/07 06:20:11;;;;;;;1.33;1.07;;;;;;;;;;5086419;28;20213;-77
2022/04/07 06:22:37;;;;;;;1.77;1.50;;;;;;;;;;5088597;28;20197;-77
2022/04/07 06:25:03;;;;;;;0.60;0.60;;;;;;;;;;5088494;28;20187;-77
2022/04/07 06:27:44;;;;;;;0.60;0.60;;;;;;;;;;5091261;28;20226;-77
2022/04/07 06:30:11;;;;;;;0.50;0.50;;;;;;;;;;5098200;28;20187;-77
2022/04/07 06:32:37;;;;;;;0.60;0.60;;;;;;;;;;5089337;28;20223;-77
2022/04/07 06:35:02;;;;;;;0.80;0.80;;;;;;;;;;5086070;28;20175;-77
2022/04/07 06:37:27;;;;;;;0.50;0.50;;;;;;;;;;5077924;28;20575;-77
2022/04/07 06:40:00;;;;;;;0.50;0.50;;;;;;;;;;5090616;28;20205;-77
2022/04/07 06:42:25;;;;;;;0.47;0.47;;;;;;;;;;5097065;28;20186;-77
2022/04/07 06:44:51;;;;;;;0.70;0.70;;;;;;;;;;5087957;28;20185;-76
2022/04/07 06:47:16;;;;;;;0.60;0.53;;;;;;;;;;5090891;28;20206;-77
2022/04/07 06:49:41;;;;;;;0.40;0.40;;;;;;;;;;5086174;28;20268;-77
2022/04/07 06:52:07;;;;;;;1.58;1.42;;;;;;;;;;5085128;28;20179;-77
2022/04/07 06:54:32;;;;;;;0.60;0.60;;;;;;;;;;5083745;28;20346;-77
2022/04/07 06:56:57;;;;;;;1.17;0.53;;;;;;;;;;5090890;28;20199;-77
2022/04/07 06:59:23;;;;;;;0.80;0.80;;;;;;;;;;5089886;28;20260;-77
2022/04/07 07:01:48;;;;;;;0.63;0.60;;;;;;;;;;5092993;28;20199;-77
2022/04/07 07:04:13;;;;;;;3.43;1.33;;;;;;;;;;5088773;28;20193;-77
2022/04/07 07:06:38;;;;;;;0.57;0.57;;;;;;;;;;5088204;28;20175;-77
2022/04/07 07:09:03;;;;;;;0.63;0.40;;;;;;;;;;5095755;28;20190;-77
2022/04/07 07:11:28;;;;;;;0.83;0.83;;;;;;;;;;5089361;28;20208;-77
2022/04/07 07:13:54;;;;;;;0.60;0.60;;;;;;;;;;5089388;28;20190;-77
2022/04/07 07:16:19;;;;;;;0.30;0.30;;;;;;;;;;5091582;28;20220;-77
2022/04/07 07:18:44;;;;;;;0.40;0.40;;;;;;;;;;5088621;28;20241;-76
2022/04/07 07:21:11;;;;;;;0.30;0.30;;;;;;;;;;5085011;28;20293;-76
2022/04/07 07:23:36;;;;;;;1.90;0.60;;;;;;;;;;5085566;28;20261;-76
2022/04/07 07:26:01;;;;;;;0.60;0.60;;;;;;;;;;5089544;28;20183;-76
2022/04/07 07:28:26;;;;;;;0.50;0.50;;;;;;;;;;5095708;28;20191;-77
2022/04/07 07:30:52;;;;;;;0.37;0.37;;;;;;;;;;5090673;28;20245;-76
2022/04/07 07:33:17;;;;;;;1.13;0.60;;;;;;;;;;5088031;28;21116;-76
2022/04/07 07:35:45;;;;;;;0.63;0.33;;;;;;;;;;5087571;28;20243;-76
2022/04/07 07:38:10;;;;;;;0.80;0.80;;;;;;;;;;5090101;28;20177;-77
2022/04/07 07:40:35;;;;;;;0.60;0.60;;;;;;;;;;5091944;28;20221;-76
2022/04/07 07:43:02;;;;;;;0.60;0.60;;;;;;;;;;5086138;28;20272;-77
2022/04/07 07:45:28;;;;;;;0.53;0.53;;;;;;;;;;5085287;28;20175;-76
2022/04/07 07:47:53;;;;;;;0.70;0.70;;;;;;;;;;5086117;28;20245;-76
2022/04/07 07:50:19;;;;;;;0.80;0.80;;;;;;;;;;5088204;28;20210;-77
2022/04/07 07:52:44;;;;;;;0.90;0.70;;;;;;;;;;5087163;28;20214;-76
2022/04/07 07:55:09;;;;;;;0.60;0.60;;;;;;;;;;5085247;28;20196;-78
2022/04/07 07:57:34;;;;;;;1.27;0.70;;;;;;;;;;5088905;28;20178;-78
2022/04/07 08:00:00;;;;;;;1.30;1.20;;;;;;;;;;5079999;28;20186;-76
2022/04/07 08:02:26;;;;;;;6.53;1.63;;;;;;;;;;5088715;28;20167;-76
2022/04/07 08:04:51;;;;;;;0.93;0.73;;;;;;;;;;5080057;28;20205;-76
2022/04/07 08:07:16;;;;;;;2.20;0.77;;;;;;;;;;5085805;28;20191;-76
2022/04/07 08:09:42;;;;;;;0.90;0.70;;;;;;;;;;5093102;28;20167;-76
2022/04/07 08:12:07;;;;;;;1.95;0.82;;;;;;;;;;5089067;28;20173;-76
2022/04/07 08:14:32;;;;;;;2.20;0.93;;;;;;;;;;5091951;28;20172;-76
2022/04/07 08:16:58;;;;;;;2.50;0.90;;;;;;;;;;5088103;28;20234;-75
2022/04/07 08:19:23;;;;;;;6.03;1.30;;;;;;;;;;5085602;28;20200;-76
2022/04/07 08:21:48;;;;;;;0.77;0.77;;;;;;;;;;5084161;28;20176;-76
2022/04/07 08:24:16;;;;;;;2.03;1.10;;;;;;;;;;5091836;28;20181;-76
2022/04/07 08:26:41;;;;;;;14.93;1.30;;;;;;;;;;5087452;28;20200;-76
2022/04/07 08:29:06;;;;;;;4.00;0.97;;;;;;;;;;5087080;28;20264;-76
2022/04/07 08:31:31;;;;;;;0.50;0.50;;;;;;;;;;5085553;28;20182;-76
2022/04/07 08:33:57;;;;;;;2.37;0.70;;;;;;;;;;5092629;28;20186;-76
2022/04/07 08:36:22;;;;;;;1.80;0.80;;;;;;;;;;5080701;28;20215;-76
2022/04/07 08:38:47;;;;;;;3.10;0.70;;;;;;;;;;5086187;28;20174;-76
2022/04/07 08:41:12;;;;;;;0.67;0.67;;;;;;;;;;5086481;28;20183;-76
2022/04/07 08:43:42;;;;;;;0.50;0.50;;;;;;;;;;5089381;28;20180;-76
2022/04/07 08:46:08;;;;;;;1.53;0.80;;;;;;;;;;5090044;28;20206;-76
2022/04/07 08:48:35;;;;;;;0.40;0.40;;;;;;;;;;5089383;28;20179;-76
2022/04/07 08:51:00;;;;;;;0.57;0.57;;;;;;;;;;5084603;28;20208;-76
2022/04/07 08:53:26;;;;;;;0.60;0.60;;;;;;;;;;5086736;28;20178;-76
2022/04/07 08:55:51;;;;;;;1.07;0.70;;;;;;;;;;5093402;28;20193;-76
2022/04/07 08:58:17;;;;;;;0.40;0.40;;;;;;;;;;5081984;28;20217;-76
2022/04/07 09:00:42;;;;;;;0.37;0.37;;;;;;;;;;5090172;28;20161;-76
2022/04/07 09:03:08;;;;;;;0.80;0.80;;;;;;;;;;5087281;28;20181;-76
2022/04/07 09:05:33;;;;;;;1.23;1.00;;;;;;;;;;5086626;28;20301;-76
2022/04/07 09:07:58;;;;;;;0.50;0.50;;;;;;;;;;5082997;28;20191;-76
2022/04/07 09:10:24;;;;;;;0.47;0.43;;;;;;;;;;5083286;28;20173;-76
2022/04/07 09:12:50;;;;;;;1.63;0.70;;;;;;;;;;5092826;28;20183;-76
2022/04/07 09:15:15;;;;;;;0.63;0.60;;;;;;;;;;5087033;28;20203;-76
2022/04/07 09:17:56;;;;;;;0.97;0.53;;;;;;;;;;5087204;28;20209;-76
2022/04/07 09:20:22;;;;;;;0.60;0.60;;;;;;;;;;5086974;28;20188;-76
2022/04/07 09:22:59;;;;;;;1.47;1.37;;;;;;;;;;5087536;28;20171;-76
2022/04/07 09:25:25;;;;;;;0.67;0.67;;;;;;;;;;5089927;28;20193;-76
2022/04/07 09:27:50;;;;;;;1.13;0.67;;;;;;;;;;5084200;28;20180;-76
2022/04/07 09:30:16;;;;;;;1.10;1.03;;;;;;;;;;5085580;28;20184;-76
2022/04/07 09:32:43;;;;;;;0.80;0.80;;;;;;;;;;5085982;28;20181;-76
2022/04/07 09:35:08;;;;;;;1.23;1.13;;;;;;;;;;5085351;28;20169;-75
2022/04/07 09:37:34;;;;;;;0.97;0.97;;;;;;;;;;5088896;28;20183;-76
2022/04/07 09:40:06;;;;;;;0.97;0.97;;;;;;;;;;5088488;28;20177;-75
2022/04/07 09:42:33;;;;;;;1.43;1.23;;;;;;;;;;5087546;28;20172;-76
2022/04/07 09:45:01;;;;;;;0.67;0.67;;;;;;;;;;5087632;28;20183;-76
2022/04/07 09:47:36;;;;;;;0.70;0.70;;;;;;;;;;5090123;28;20188;-76
2022/04/07 09:50:02;;;;;;;0.97;0.77;;;;;;;;;;5082302;28;20187;-76
2022/04/07 09:52:27;;;;;;;0.80;0.80;;;;;;;;;;5085752;28;20173;-76
2022/04/07 09:54:53;;;;;;;1.03;0.70;;;;;;;;;;5081073;28;20164;-76
2022/04/07 09:57:21;;;;;;;0.60;0.60;;;;;;;;;;5085255;28;20223;-76
2022/04/07 09:59:47;;;;;;;0.83;0.83;;;;;;;;;;5085820;28;20292;-76
2022/04/07 10:02:13;;;;;;;0.63;0.50;;;;;;;;;;5084679;28;20230;-76
2022/04/07 10:04:38;;;;;;;1.50;0.70;;;;;;;;;;5086082;28;20249;-75
2022/04/07 10:07:04;;;;;;;0.60;0.53;;;;;;;;;;5086309;28;20182;-76
2022/04/07 10:09:30;;;;;;;0.90;0.90;;;;;;;;;;5087100;28;20177;-76
2022/04/07 10:11:55;;;;;;;1.17;0.50;;;;;;;;;;5084318;28;20309;-76
2022/04/07 10:14:21;;;;;;;0.50;0.50;;;;;;;;;;5083014;28;20178;-76
2022/04/07 10:16:47;;;;;;;0.50;0.50;;;;;;;;;;5088323;28;20239;-76
2022/04/07 10:19:16;;;;;;;0.47;0.40;;;;;;;;;;5086359;28;20181;-76
2022/04/07 10:21:48;;;;;;;0.73;0.43;;;;;;;;;;5087657;28;20196;-76
2022/04/07 10:24:24;;;;;;;0.83;0.77;;;;;;;;;;5089005;28;20396;-76
2022/04/07 10:26:49;;;;;;;0.73;0.50;;;;;;;;;;5080255;28;20176;-76
2022/04/07 10:29:24;;;;;;;0.97;0.97;;;;;;;;;;5086198;28;20187;-75
2022/04/07 10:32:09;;;;;;;0.47;0.40;;;;;;;;;;5087813;28;20181;-76
2022/04/07 10:34:34;;;;;;;0.67;0.67;;;;;;;;;;5083101;28;20260;-76
2022/04/07 10:37:05;;;;;;;0.70;0.70;;;;;;;;;;5088614;28;20362;-76
2022/04/07 10:39:32;;;;;;;1.23;0.80;;;;;;;;;;5085546;28;20336;-76
2022/04/07 10:41:57;;;;;;;0.43;0.40;;;;;;;;;;5083297;28;20176;-76
2022/04/07 10:44:25;;;;;;;0.57;0.57;;;;;;;;;;5089585;28;20170;-75
2022/04/07 10:47:00;;;;;;;0.43;0.43;;;;;;;;;;5088785;28;20173;-75
2022/04/07 10:49:26;;;;;;;1.07;0.73;;;;;;;;;;5088614;28;20236;-76
2022/04/07 10:51:55;;;;;;;0.33;0.33;;;;;;;;;;5088930;28;20277;-75
2022/04/07 10:54:21;;;;;;;0.83;0.60;;;;;;;;;;5091061;28;20449;-75
2022/04/07 10:56:48;;;;;;;1.23;0.77;;;;;;;;;;5090055;28;20200;-76
2022/04/07 10:59:17;;;;;;;0.30;0.30;;;;;;;;;;5090358;28;20180;-76
2022/04/07 11:01:42;;;;;;;0.40;0.40;;;;;;;;;;5089264;28;20165;-75
2022/04/07 11:04:22;;;;;;;0.23;0.23;;;;;;;;;;5089954;28;20197;-76
2022/04/07 11:07:10;;;;;;;0.30;0.30;;;;;;;;;;5080970;28;20219;-75
2022/04/07 11:09:55;;;;;;;0.30;0.30;;;;;;;;;;5088043;28;20184;-76
2022/04/07 11:12:31;;;;;;;0.60;0.60;;;;;;;;;;5089041;28;20627;-76
2022/04/07 11:15:02;;;;;;;0.33;0.33;;;;;;;;;;5083981;28;20870;-75
2022/04/07 11:17:32;;;;;;;0.67;0.67;;;;;;;;;;5088379;28;20225;-75
2022/04/07 11:20:24;;;;;;;1.30;1.07;;;;;;;;;;5084993;28;20252;-75
2022/04/07 11:22:52;;;;;;;11.50;8.17;;;;;;;;;;5082294;28;20236;-76
2022/04/07 11:25:22;;;;;;;1.30;1.20;;;;;;;;;;5087645;28;20176;-75
2022/04/07 11:28:02;;;;;;;0.80;0.80;;;;;;;;;;5086608;28;20199;-75
2022/04/07 11:30:35;;;;;;;0.70;0.70;;;;;;;;;;5087202;28;20219;-75
2022/04/07 11:33:13;;;;;;;0.40;0.40;;;;;;;;;;5089150;28;20227;-76
2022/04/07 11:35:38;;;;;;;0.77;0.73;;;;;;;;;;5084711;28;20197;-75
2022/04/07 11:38:03;;;;;;;0.30;0.30;;;;;;;;;;5082911;28;20170;-75
2022/04/07 11:40:29;;;;;;;0.83;0.83;;;;;;;;;;5086432;28;20180;-75
2022/04/07 11:42:54;;;;;;;0.90;0.70;;;;;;;;;;5079517;28;20184;-75
2022/04/07 11:45:19;;;;;;;0.60;0.60;;;;;;;;;;5088277;28;20169;-75
2022/04/07 11:47:48;;;;;;;0.63;0.57;;;;;;;;;;5086175;28;20181;-75
2022/04/07 11:50:13;;;;;;;0.77;0.77;;;;;;;;;;5084330;28;20254;-75
2022/04/07 11:52:38;;;;;;;0.30;0.30;;;;;;;;;;5089445;28;20342;-75
2022/04/07 11:55:04;;;;;;;0.70;0.70;;;;;;;;;;5088907;28;20186;-75
2022/04/07 11:57:30;;;;;;;0.60;0.60;;;;;;;;;;5088404;28;20180;-75
2022/04/07 12:00:04;;;;;;;0.87;0.63;;;;;;;;;;5084674;28;20407;-75
2022/04/07 12:02:29;;;;;;;0.40;0.40;;;;;;;;;;5082564;28;20177;-76
2022/04/07 12:04:56;;;;;;;0.77;0.77;;;;;;;;;;5085519;28;20204;-75
2022/04/07 12:07:22;;;;;;;0.40;0.40;;;;;;;;;;5088000;28;20524;-75
2022/04/07 12:09:47;;;;;;;1.17;0.63;;;;;;;;;;5092680;28;20182;-75
2022/04/07 12:12:13;;;;;;;0.57;0.57;;;;;;;;;;5086643;28;20218;-75
2022/04/07 12:14:40;;;;;;;0.80;0.50;;;;;;;;;;5087068;28;20256;-75
2022/04/07 12:17:06;;;;;;;0.40;0.40;;;;;;;;;;5083218;28;20234;-75
2022/04/07 12:19:47;;;;;;;0.67;0.40;;;;;;;;;;5088697;28;20183;-75
2022/04/07 12:22:13;;;;;;;0.57;0.57;;;;;;;;;;5087024;28;20573;-76
2022/04/07 12:24:38;;;;;;;0.50;0.50;;;;;;;;;;5088105;28;20585;-76
2022/04/07 12:27:04;;;;;;;3.90;1.20;;;;;;;;;;5077980;28;20180;-75
2022/04/07 12:29:34;;;;;;;0.60;0.60;;;;;;;;;;5080116;28;20185;-77
2022/04/07 12:32:06;;;;;;;0.80;0.80;;;;;;;;;;5081245;28;20178;-73
2022/04/07 12:34:32;;;;;;;0.67;0.67;;;;;;;;;;5078925;28;20182;-73
2022/04/07 12:36:58;;;;;;;0.97;0.93;;;;;;;;;;5086629;28;20208;-73
2022/04/07 12:39:27;;;;;;;2.00;1.33;;;;;;;;;;5088112;28;20177;-73
2022/04/07 12:41:54;;;;;;;1.33;1.17;;;;;;;;;;5091202;28;20258;-73
2022/04/07 12:44:31;;;;;;;0.97;0.97;;;;;;;;;;5081543;28;20163;-73
2022/04/07 12:46:57;;;;;;;0.33;0.33;;;;;;;;;;5089565;28;20177;-73
2022/04/07 12:49:23;;;;;;;0.80;0.67;;;;;;;;;;5088190;28;20397;-73
2022/04/07 12:51:59;;;;;;;0.70;0.63;;;;;;;;;;5085002;28;20173;-73
2022/04/07 12:54:24;;;;;;;0.73;0.73;;;;;;;;;;5089086;28;20176;-73
2022/04/07 12:56:49;;;;;;;0.33;0.33;;;;;;;;;;5088393;28;20218;-73
2022/04/07 12:59:14;;;;;;;0.53;0.53;;;;;;;;;;5087192;28;20172;-73
2022/04/07 13:01:41;;;;;;;0.50;0.50;;;;;;;;;;5079652;28;20222;-73
2022/04/07 13:04:08;;;;;;;1.27;1.17;;;;;;;;;;5086144;28;20193;-73
2022/04/07 13:06:34;;;;;;;0.20;0.20;;;;;;;;;;5088654;28;20200;-73
2022/04/07 13:08:59;;;;;;;0.77;0.77;;;;;;;;;;5087135;28;20186;-73
2022/04/07 13:11:30;;;;;;;1.37;1.27;;;;;;;;;;5084538;28;20187;-73
2022/04/07 13:13:56;;;;;;;0.40;0.40;;;;;;;;;;5088470;28;20185;-73
2022/04/07 13:16:21;;;;;;;1.07;0.50;;;;;;;;;;5082627;28;20222;-73
2022/04/07 13:18:46;;;;;;;1.10;0.97;;;;;;;;;;5082758;28;20356;-73
2022/04/07 13:21:11;;;;;;;1.60;0.90;;;;;;;;;;5082686;28;20183;-73
2022/04/07 13:23:36;;;;;;;0.60;0.60;;;;;;;;;;5086974;28;20272;-73
2022/04/07 13:26:01;;;;;;;0.40;0.40;;;;;;;;;;5086157;28;20188;-73
2022/04/07 13:28:27;;;;;;;0.90;0.85;;;;;;;;;;5086991;28;20191;-73
2022/04/07 13:30:52;;;;;;;2.13;1.87;;;;;;;;;;5089350;28;20182;-73
2022/04/07 13:33:17;;;;;;;0.57;0.57;;;;;;;;;;5085953;28;20176;-73
2022/04/07 13:35:42;;;;;;;0.43;0.43;;;;;;;;;;5088676;28;20207;-73
2022/04/07 13:38:08;;;;;;;0.80;0.80;;;;;;;;;;5086493;28;20170;-73
2022/04/07 13:40:35;;;;;;;0.67;0.60;;;;;;;;;;5083905;28;20195;-73
2022/04/07 13:43:00;;;;;;;1.47;1.37;;;;;;;;;;5080338;28;20189;-72
2022/04/07 13:45:25;;;;;;;0.80;0.80;;;;;;;;;;5086212;28;20173;-73
2022/04/07 13:47:50;;;;;;;1.40;0.87;;;;;;;;;;5089933;28;20184;-73
2022/04/07 13:50:16;;;;;;;0.65;0.65;;;;;;;;;;5089354;28;20211;-73
2022/04/07 13:52:41;;;;;;;0.53;0.53;;;;;;;;;;5088357;28;20194;-73
2022/04/07 13:55:08;;;;;;;0.67;0.67;;;;;;;;;;5083875;28;20204;-73
2022/04/07 13:57:33;;;;;;;0.80;0.60;;;;;;;;;;5085483;28;20188;-73
2022/04/07 13:59:58;;;;;;;0.57;0.57;;;;;;;;;;5086756;28;20169;-73
2022/04/07 14:02:23;;;;;;;0.60;0.60;;;;;;;;;;5087660;28;20188;-73
2022/04/07 14:04:48;;;;;;;0.40;0.40;;;;;;;;;;5090367;28;20264;-73
2022/04/07 14:07:14;;;;;;;0.30;0.30;;;;;;;;;;5088572;28;20480;-73
2022/04/07 14:09:39;;;;;;;0.53;0.53;;;;;;;;;;5087133;28;20213;-73
2022/04/07 14:12:04;;;;;;;0.30;0.30;;;;;;;;;;5085940;28;20237;-73
2022/04/07 14:14:29;;;;;;;0.40;0.40;;;;;;;;;;5083352;28;20176;-73
2022/04/07 14:16:54;;;;;;;0.70;0.70;;;;;;;;;;5087448;28;20226;-73
2022/04/07 14:19:20;;;;;;;0.47;0.47;;;;;;;;;;5085181;28;20230;-72
2022/04/07 14:21:45;;;;;;;0.43;0.40;;;;;;;;;;5082464;28;20169;-73
2022/04/07 14:24:10;;;;;;;0.33;0.33;;;;;;;;;;5082795;28;20252;-73
2022/04/07 14:26:37;;;;;;;1.17;1.07;;;;;;;;;;5093817;28;20188;-73
2022/04/07 14:29:03;;;;;;;1.43;0.80;;;;;;;;;;5087699;28;20215;-73
2022/04/07 14:31:28;;;;;;;0.60;0.60;;;;;;;;;;5085186;28;20208;-73
2022/04/07 14:33:55;;;;;;;1.00;1.00;;;;;;;;;;5086002;28;20182;-73
2022/04/07 14:36:20;;;;;;;0.53;0.53;;;;;;;;;;5086975;28;20245;-73
2022/04/07 14:38:46;;;;;;;1.20;1.10;;;;;;;;;;5086334;28;20267;-73